Arroyo Seco, New Mexico
Current Conditions -  °F | °C
As of 1:35 AM on Friday 19 Dec 2014 (Local Time) from KSKX Reporting Station
Broken Clouds Broken Clouds  
Wind Chill: 14°   Ceiling: 5000
Heat Index: 21°   Visibility: 10mi
Dew Point: 18°   Wind: 6mph
Humidity: 86%   Direction: 350°N
Pressure: 30.12"   Gusts: NA
Location:  36.52°N, 105.57°W
Report Text: KSKX 190835Z AUTO 35005KT 10SM BKN050 M06/M08 A3012 RMK AO1
Loading
Personal Weather Stations






























Interactive Weather Map New forecast layout! Learn more

10-Day Weather Forecast

Advertisements
Track Severe Weather on mobile